Home > Products > Valid Products > TAF

000
FTUS42 KTAE 282000 AAA
TAFVLD
TAF AMD
KVLD 282021Z 2820/0118 05010KT 5SM -RA BR OVC006
     FM010200 05009KT P6SM VCSH OVC006
     FM010700 04007KT 4SM BR OVC003
     FM011400 04005KT P6SM OVC008=



000
FTUS42 KTAE 281800 AAA
TAFTLH
TAF AMD
KTLH 281856Z 2819/0118 05009KT P6SM VCSH OVC010
     FM010300 05008KT P6SM OVC006
     FM010800 05007KT 4SM BR OVC003
     FM011400 06007KT P6SM OVC008=



000
FTUS42 KTAE 281800 AAA
TAFTLH
TAF AMD
KTLH 281856Z 2819/0118 05009KT P6SM VCSH OVC010
     FM010300 05008KT P6SM OVC006
     FM010800 05007KT 4SM BR OVC003
     FM011400 06007KT P6SM OVC008=



000
FTUS42 KTAE 281700
TAFVLD
TAF
KVLD 281732Z 2818/0118 05010KT 3SM SHRA BR OVC007
     FM282000 05010KT P6SM VCSH FEW007 OVC015
     FM010200 05009KT P6SM VCSH OVC006
     FM010700 04007KT 4SM BR OVC003
     FM011400 04005KT P6SM OVC008=



000
FTUS42 KTAE 281700
TAFDHN
TAF
KDHN 281732Z 2818/0118 07012KT P6SM OVC025
     FM282100 07010KT P6SM OVC015
     FM010500 07009KT P6SM OVC006
     FM010800 07009KT 5SM BR OVC004
     FM011400 07008KT P6SM OVC008=



000
FTUS42 KTAE 281700
TAFABY
TAF
KABY 281732Z 2818/0118 06011KT 6SM -DZ BR VCSH OVC020
     FM282100 06010KT P6SM OVC015
     FM010500 05008KT 6SM BR OVC006
     FM010800 05008KT 5SM BR OVC004
     FM011400 05008KT P6SM OVC008=



000
FTUS42 KTAE 281700
TAFTLH
TAF
KTLH 281732Z 2818/0118 05009KT 5SM -RA BR OVC008
     FM282000 05009KT P6SM VCSH OVC010
     FM010300 05008KT P6SM OVC006
     FM010800 05007KT 4SM BR OVC003
     FM011400 06007KT P6SM OVC008=



000
FTUS42 KTAE 281700
TAFVLD
TAF
KVLD 281732Z 2818/0118 05010KT 3SM SHRA BR OVC007
     FM282000 05010KT P6SM VCSH FEW007 OVC015
     FM010200 05009KT P6SM VCSH OVC006
     FM010700 04007KT 4SM BR OVC003
     FM011400 04005KT P6SM OVC008=



000
FTUS42 KTAE 281700
TAFABY
TAF
KABY 281732Z 2818/0118 06011KT 6SM -DZ BR VCSH OVC020
     FM282100 06010KT P6SM OVC015
     FM010500 05008KT 6SM BR OVC006
     FM010800 05008KT 5SM BR OVC004
     FM011400 05008KT P6SM OVC008=



000
FTUS42 KTAE 281700
TAFDHN
TAF
KDHN 281732Z 2818/0118 07012KT P6SM OVC025
     FM282100 07010KT P6SM OVC015
     FM010500 07009KT P6SM OVC006
     FM010800 07009KT 5SM BR OVC004
     FM011400 07008KT P6SM OVC008=



000
FTUS42 KTAE 281700
TAFTLH
TAF
KTLH 281732Z 2818/0118 05009KT 5SM -RA BR OVC008
     FM282000 05009KT P6SM VCSH OVC010
     FM010300 05008KT P6SM OVC006
     FM010800 05007KT 4SM BR OVC003
     FM011400 06007KT P6SM OVC008=



000
FTUS42 KTAE 281400 AAA
TAFVLD
TAF AMD
KVLD 281405Z 2814/0112 05010KT 5SM SHRA BR OVC007
     FM282200 05010KT P6SM FEW007 OVC015
     FM010200 05009KT P6SM OVC007
     FM010800 04007KT 4SM BR OVC003=



000
FTUS42 KTAE 281400 AAA
TAFVLD
TAF AMD
KVLD 281405Z 2814/0112 05010KT 5SM SHRA BR OVC007
     FM282200 05010KT P6SM FEW007 OVC015
     FM010200 05009KT P6SM OVC007
     FM010800 04007KT 4SM BR OVC003=



000
FTUS42 KTAE 281100
TAFDHN
TAF
KDHN 281120Z 2812/0112 03006KT P6SM SCT050 BKN200
     FM281300 06010KT P6SM SCT025 OVC050
     FM281700 06012KT P6SM VCSH OVC025
     FM010100 07010KT P6SM OVC015
     FM010600 06009KT P6SM OVC007=



000
FTUS42 KTAE 281100
TAFVLD
TAF
KVLD 281120Z 2812/0112 05008KT P6SM VCSH OVC025
     FM281400 05010KT 5SM SHRA BR OVC015
     FM282200 05010KT P6SM FEW007 OVC015
     FM010200 05009KT P6SM OVC007
     FM010800 04007KT 4SM BR OVC003=



000
FTUS42 KTAE 281100
TAFABY
TAF
KABY 281120Z 2812/0112 03004KT P6SM SCT050 BKN200
     FM281400 06010KT P6SM SCT025 OVC050
     FM281700 06011KT 6SM -DZ BR VCSH OVC025
     FM010000 06010KT P6SM OVC015
     FM010500 05008KT 6SM BR OVC007=



000
FTUS42 KTAE 281100
TAFTLH
TAF
KTLH 281120Z 2812/0112 05007KT P6SM OVC025
     FM281400 05009KT 5SM -DZ BR VCSH OVC015
     FM282200 04008KT P6SM FEW007 OVC015
     FM010400 04008KT P6SM OVC007
     FM010800 04007KT 4SM BR OVC003=



000
FTUS42 KTAE 281000 AAA
TAFVLD
TAF AMD
KVLD 281004Z 2810/0106 05008KT P6SM VCSH OVC025
     FM281400 05010KT 5SM SHRA BR OVC015
     FM282200 05010KT P6SM FEW007 OVC015
     FM010200 05009KT P6SM OVC007=



000
FTUS42 KTAE 281000 AAA
TAFVLD
TAF AMD
KVLD 281004Z 2810/0106 05008KT P6SM VCSH OVC025
     FM281400 05010KT 5SM SHRA BR OVC015
     FM282200 05010KT P6SM FEW007 OVC015
     FM010200 05009KT P6SM OVC007=



000
FTUS42 KTAE 280900 AAA
TAFTLH
TAF AMD
KTLH 280921Z 2809/0106 05007KT P6SM OVC025
     FM281400 05009KT 5SM -DZ BR VCSH OVC015
     FM282200 04008KT P6SM FEW007 OVC015
     FM010400 04008KT P6SM OVC007=



000
FTUS42 KTAE 280500
TAFABY
TAF
KABY 280520Z 2806/0106 03004KT P6SM SCT050 BKN200
     FM281400 06010KT P6SM SCT025 OVC050
     FM281700 06011KT 6SM -DZ BR VCSH OVC025
     FM010000 06010KT P6SM OVC015=



000
FTUS42 KTAE 280500
TAFTLH
TAF
KTLH 280520Z 2806/0106 05004KT P6SM SCT050 OVC150
     FM281100 05007KT P6SM OVC025
     FM281400 05009KT 5SM -DZ BR VCSH OVC015
     FM282200 04008KT P6SM FEW007 OVC015
     FM010400 04008KT P6SM OVC007=



000
FTUS42 KTAE 280500
TAFVLD
TAF
KVLD 280520Z 2806/0106 06005KT P6SM SCT050 OVC150
     FM281100 04008KT 5SM -DZ BR VCSH OVC025
     FM281400 05010KT 5SM SHRA BR OVC015
     FM282200 05010KT P6SM FEW007 OVC015
     FM010200 05009KT P6SM OVC007=



000
FTUS42 KTAE 280500
TAFDHN
TAF
KDHN 280520Z 2806/0106 03006KT P6SM SCT050 BKN200
     FM281300 06010KT P6SM SCT025 OVC050
     FM281700 06012KT P6SM VCSH OVC025
     FM010100 07010KT P6SM OVC015=



000
FTUS42 KTAE 280500
TAFABY
TAF
KABY 280520Z 2806/0106 03004KT P6SM SCT050 BKN200
     FM281400 06010KT P6SM SCT025 OVC050
     FM281700 06011KT 6SM -DZ BR VCSH OVC025
     FM010000 06010KT P6SM OVC015=



000
FTUS42 KTAE 280500
TAFVLD
TAF
KVLD 280520Z 2806/0106 06005KT P6SM SCT050 OVC150
     FM281100 04008KT 5SM -DZ BR VCSH OVC025
     FM281400 05010KT 5SM SHRA BR OVC015
     FM282200 05010KT P6SM FEW007 OVC015
     FM010200 05009KT P6SM OVC007=



000
FTUS42 KTAE 280500
TAFDHN
TAF
KDHN 280520Z 2806/0106 03006KT P6SM SCT050 BKN200
     FM281300 06010KT P6SM SCT025 OVC050
     FM281700 06012KT P6SM VCSH OVC025
     FM010100 07010KT P6SM OVC015=



000
FTUS42 KTAE 280500
TAFTLH
TAF
KTLH 280520Z 2806/0106 05004KT P6SM SCT050 OVC150
     FM281100 05007KT P6SM OVC025
     FM281400 05009KT 5SM -DZ BR VCSH OVC015
     FM282200 04008KT P6SM FEW007 OVC015
     FM010400 04008KT P6SM OVC007=



000
FTUS42 KTAE 272300
TAFVLD
TAF
KVLD 272320Z 2800/2824 05004KT P6SM BKN150 OVC250
     FM280900 05008KT P6SM BKN025 OVC150
     FM281200 06010G20KT 6SM -RA OVC020=



000
FTUS42 KTAE 272300
TAFDHN
TAF
KDHN 272320Z 2800/2824 03005KT P6SM SCT150 BKN250
     FM281200 07010G15KT P6SM BKN025 OVC150=



000
FTUS42 KTAE 272300
TAFTLH
TAF
KTLH 272320Z 2800/2824 05004KT P6SM BKN150 OVC250
     FM280900 05008KT P6SM BKN025 OVC150
     FM281200 06010G15KT 6SM -RA OVC020=



000
FTUS42 KTAE 272300
TAFABY
TAF
KABY 272320Z 2800/2824 05004KT P6SM BKN150 OVC250
     FM281200 06010G15KT 6SM -RA OVC020=



000
FTUS42 KTAE 271700
TAFVLD
TAF
KVLD 271724Z 2718/2818 04008KT P6SM SCT030 BKN250
     FM280500 05008KT P6SM BKN035
     FM281200 05010KT P6SM BKN025 OVC030=



000
FTUS42 KTAE 271700
TAFTLH
TAF
KTLH 271724Z 2718/2818 04008KT P6SM BKN250
     FM280500 05008KT P6SM BKN035
     FM281200 05010KT P6SM BKN025 OVC030=



000
FTUS42 KTAE 271700
TAFDHN
TAF
KDHN 271724Z 2718/2818 03010KT P6SM FEW250
     FM281200 07010KT P6SM BKN030=



000
FTUS42 KTAE 271700
TAFABY
TAF
KABY 271724Z 2718/2818 04008KT P6SM FEW250
     FM281200 06010KT P6SM BKN030=



000
FTUS42 KTAE 271400 AAA
TAFDHN
TAF AMD
KDHN 271411Z 2714/2812 36010G15KT P6SM SCT250=



000
FTUS42 KTAE 271400 AAA
TAFDHN
TAF AMD
KDHN 271411Z 2714/2812 36010G15KT P6SM SCT250=



000
FTUS42 KTAE 271100
TAFTLH
TAF
KTLH 271120Z 2712/2812 03005KT P6SM BKN250=



000
FTUS42 KTAE 271100
TAFVLD
TAF
KVLD 271120Z 2712/2812 03009KT P6SM BKN250=



000
FTUS42 KTAE 271100
TAFDHN
TAF
KDHN 271120Z 2712/2812 03008KT P6SM SCT250=



000
FTUS42 KTAE 271100
TAFABY
TAF
KABY 271120Z 2712/2812 02007KT P6SM SCT250=



000
FTUS42 KTAE 270500
TAFVLD
TAF
KVLD 270527Z 2706/2806 03005KT P6SM BKN250=



000
FTUS42 KTAE 270300 AAA
TAFTLH
TAF AMD
KTLH 270350Z 2704/2724 36004KT P6SM BKN022
     FM270800 35005KT P6SM SCT025 BKN250
     FM271600 02008KT P6SM SCT150 BKN250
     FM272200 02006KT P6SM SCT250=



000
FTUS42 KTAE 270300 AAB
TAFVLD
TAF AMD
KVLD 270350Z 2704/2724 00000KT P6SM BKN250
      TEMPO 2705/2709 BKN025
     FM270900 02003KT P6SM OVC030
     FM271600 03007KT P6SM SCT120 BKN250
     FM272300 04005KT P6SM SCT250=



000
FTUS42 KTAE 270200 AAA
TAFVLD
TAF AMD
KVLD 270247Z 2703/2724 05003KT P6SM OVC026
      TEMPO 2703/2707 SCT025
     FM270900 02003KT P6SM OVC030
     FM271600 03007KT P6SM SCT120 BKN250
     FM272300 04005KT P6SM SCT250=



000
FTUS42 KTAE 270200 AAA
TAFABY
TAF AMD
KABY 270246Z 2703/2724 23003KT P6SM BKN250
     FM271600 03006KT P6SM SCT150 BKN250
     FM272200 02008KT P6SM SCT250=



000
FTUS42 KTAE 270200 AAA
TAFABY
TAF AMD
KABY 270246Z 2703/2724 23003KT P6SM BKN250
     FM271600 03006KT P6SM SCT150 BKN250
     FM272200 02008KT P6SM SCT250=



000
FTUS42 KTAE 262300
TAFDHN
TAF
KDHN 262340Z 2700/2724 36008KT P6SM OVC018
     FM270400 35008KT P6SM SCT025 BKN150
     FM271500 36010KT P6SM SCT250=



000
FTUS42 KTAE 262300
TAFVLD
TAF
KVLD 262340Z 2700/2724 36008KT P6SM OVC026
     FM270900 02003KT P6SM OVC030
     FM271600 03007KT P6SM SCT120 BKN250
     FM272300 04005KT P6SM SCT250=



000
FTUS42 KTAE 262300
TAFABY
TAF
KABY 262340Z 2700/2724 30003KT P6SM OVC035
      TEMPO 2700/2704 BKN025
     FM270400 35004KT P6SM BKN035 BKN150
     FM271600 03006KT P6SM SCT150 BKN250
     FM272200 02008KT P6SM SCT250=



000
FTUS42 KTAE 262300
TAFTLH
TAF
KTLH 262340Z 2700/2724 34009G17KT P6SM OVC022
     FM270800 35005KT P6SM SCT025 BKN250
     FM271600 02008KT P6SM SCT150 BKN250
     FM272200 02006KT P6SM SCT250=



000
FTUS42 KTAE 262000 AAA
TAFDHN
TAF AMD
KDHN 262000Z 2620/2718 33010KT P6SM OVC015
     FM262300 33008KT P6SM BKN025
     FM270400 35006KT P6SM SCT200=



000
FTUS42 KTAE 261700
TAFVLD
TAF
KVLD 261729Z 2618/2718 34005KT P6SM OVC019
     FM262000 33006KT P6SM BKN025
     FM262200 35006KT P6SM BKN030
     FM270900 36007KT P6SM SCT200=



000
FTUS42 KTAE 261700
TAFABY
TAF
KABY 261729Z 2618/2718 34008KT P6SM OVC015
     FM262000 33008KT P6SM BKN025
     FM262200 33008KT P6SM BKN030
     FM270400 35006KT P6SM SCT200=



000
FTUS42 KTAE 261700
TAFTLH
TAF
KTLH 261729Z 2618/2718 35006KT P6SM OVC015
     FM262000 32006KT P6SM BKN025
     FM262100 34006KT P6SM BKN030
     FM271200 36006KT P6SM SCT200=



000
FTUS42 KTAE 261500 AAA
TAFVLD
TAF AMD
KVLD 261510Z 2615/2712 34005KT P6SM OVC012
     FM262300 35003KT P6SM SCT015 OVC025=



000
FTUS42 KTAE 261500 AAA
TAFVLD
TAF AMD
KVLD 261510Z 2615/2712 34005KT P6SM OVC012
     FM262300 35003KT P6SM SCT015 OVC025=



000
FTUS42 KTAE 261500 AAA
TAFABY
TAF AMD
KABY 261509Z 2615/2712 36005KT P6SM OVC015
     FM262200 32005KT P6SM SCT015 BKN025=



000
FTUS42 KTAE 261300 AAA
TAFDHN
TAF AMD
KDHN 261311Z 2613/2712 32011KT P6SM OVC008
     FM261430 33007KT P6SM OVC010
     FM262100 32008KT P6SM SCT015 BKN025=



000
FTUS42 KTAE 261300 AAA
TAFDHN
TAF AMD
KDHN 261311Z 2613/2712 32011KT P6SM OVC008
     FM261430 33007KT P6SM OVC010
     FM262100 32008KT P6SM SCT015 BKN025=



000
FTUS42 KTAE 261300 AAA
TAFTLH
TAF AMD
KTLH 261309Z 2613/2712 33010KT P6SM OVC010
     FM261800 31006KT P6SM BKN015
     FM262200 32007KT P6SM OVC025=



000
FTUS42 KTAE 261300 AAA
TAFTLH
TAF AMD
KTLH 261309Z 2613/2712 33010KT P6SM OVC010
     FM261800 31006KT P6SM BKN015
     FM262200 32007KT P6SM OVC025=



000
FTUS42 KTAE 261100
TAFDHN
TAF
KDHN 261120Z 2612/2712 32011KT P6SM OVC004
     FM261400 33007KT P6SM BKN007 OVC015
     FM262100 32008KT P6SM SCT015 BKN025=



000
FTUS42 KTAE 261100
TAFABY
TAF
KABY 261120Z 2612/2712 34007KT P6SM OVC008
     FM261800 32005KT P6SM OVC015
     FM262200 32005KT P6SM SCT015 BKN025=



000
FTUS42 KTAE 261100
TAFDHN
TAF
KDHN 261120Z 2612/2712 32011KT P6SM OVC004
     FM261400 33007KT P6SM BKN007 OVC015
     FM262100 32008KT P6SM SCT015 BKN025=



000
FTUS42 KTAE 261100
TAFTLH
TAF
KTLH 261120Z 2612/2712 31006KT P6SM OVC007
     FM261800 31006KT P6SM BKN015
     FM262200 32007KT P6SM OVC025=



000
FTUS42 KTAE 261100
TAFABY
TAF
KABY 261120Z 2612/2712 34007KT P6SM OVC008
     FM261800 32005KT P6SM OVC015
     FM262200 32005KT P6SM SCT015 BKN025=



000
FTUS42 KTAE 261100
TAFTLH
TAF
KTLH 261120Z 2612/2712 31006KT P6SM OVC007
     FM261800 31006KT P6SM BKN015
     FM262200 32007KT P6SM OVC025=



000
FTUS42 KTAE 261100
TAFVLD
TAF
KVLD 261120Z 2612/2712 VRB03KT P6SM OVC004
     FM261500 34005KT P6SM OVC007
     FM261900 35004KT P6SM OVC015
     FM262300 35003KT P6SM SCT015 OVC025=



000
FTUS42 KTAE 260800 AAA
TAFTLH
TAF AMD
KTLH 260825Z 2608/2706 30012KT P6SM OVC005
     FM261000 32005KT P6SM OVC008
     FM261800 31006KT P6SM BKN015
     FM262200 32007KT P6SM OVC025=



000
FTUS42 KTAE 260800 AAA
TAFTLH
TAF AMD
KTLH 260825Z 2608/2706 30012KT P6SM OVC005
     FM261000 32005KT P6SM OVC008
     FM261800 31006KT P6SM BKN015
     FM262200 32007KT P6SM OVC025=



000
FTUS42 KTAE 260500
TAFDHN
TAF
KDHN 260520Z 2606/2706 35010KT P6SM OVC006
     FM261400 33007KT P6SM BKN010 OVC015
     FM262100 32008KT P6SM SCT015 BKN025=



000
FTUS42 KTAE 260500
TAFTLH
TAF
KTLH 260520Z 2606/2706 VRB04KT P6SM BKN014 BKN040 OVC080
     FM261000 32005KT P6SM OVC008
     FM261800 31006KT P6SM BKN015
     FM262200 32007KT P6SM OVC025=



000
FTUS42 KTAE 260400 AAD
TAFABY
TAF AMD
KABY 260434Z 2605/2624 03005KT P6SM OVC008
     FM261000 34005KT 5SM BR OVC007
     FM261800 32005KT P6SM OVC015
     FM262200 32005KT P6SM SCT015 BKN025=



000
FTUS42 KTAE 260400 AAE
TAFDHN
TAF AMD
KDHN 260434Z 2605/2624 35010KT 5SM BR OVC004
     FM261400 33007KT P6SM BKN010 OVC015
     FM262100 32008KT P6SM SCT015 BKN025=



000
FTUS42 KTAE 260400 AAE
TAFDHN
TAF AMD
KDHN 260434Z 2605/2624 35010KT 5SM BR OVC004
     FM261400 33007KT P6SM BKN010 OVC015
     FM262100 32008KT P6SM SCT015 BKN025=



000
FTUS42 KTAE 260400 AAD
TAFTLH
TAF AMD
KTLH 260433Z 2605/2624 34004KT P6SM -RA FEW007 BKN045 OVC100
     FM260800 32007KT 6SM -RA BR OVC015
     FM261000 32005KT P6SM OVC010
     FM261800 31006KT P6SM BKN015
     FM262200 32007KT P6SM OVC025=



000
FTUS42 KTAE 260400 AAD
TAFTLH
TAF AMD
KTLH 260433Z 2605/2624 34004KT P6SM -RA FEW007 BKN045 OVC100
     FM260800 32007KT 6SM -RA BR OVC015
     FM261000 32005KT P6SM OVC010
     FM261800 31006KT P6SM BKN015
     FM262200 32007KT P6SM OVC025=



000
FTUS42 KTAE 260200 AAC
TAFVLD
TAF AMD
KVLD 260252Z 2603/2624 VRB05G16KT 3/4SM +RA BR SCT005 OVC010
      TEMPO 2603/2606 VRB15G30KT 2SM +TSRA BKN007 OVC025CB
     FM260900 34005KT P6SM BKN010
     FM261900 35004KT P6SM OVC015
     FM262300 35003KT P6SM BKN015 OVC025=



000
FTUS42 KTAE 260200 AAC
TAFVLD
TAF AMD
KVLD 260252Z 2603/2624 VRB05G16KT 3/4SM +RA BR SCT005 OVC010
      TEMPO 2603/2606 VRB15G30KT 2SM +TSRA BKN007 OVC025CB
     FM260900 34005KT P6SM BKN010
     FM261900 35004KT P6SM OVC015
     FM262300 35003KT P6SM BKN015 OVC025=



000
FTUS42 KTAE 260200 AAC
TAFABY
TAF AMD
KABY 260250Z 2603/2624 08013G19KT P6SM -RA BKN008 BKN024 OVC035
     FM260400 36006KT 4SM -RA BR OVC010
     FM261000 34005KT 5SM BR OVC007
     FM261800 32005KT P6SM OVC015
     FM262200 32005KT P6SM SCT015 BKN025=



000
FTUS42 KTAE 260200 AAC
TAFABY
TAF AMD
KABY 260250Z 2603/2624 08013G19KT P6SM -RA BKN008 BKN024 OVC035
     FM260400 36006KT 4SM -RA BR OVC010
     FM261000 34005KT 5SM BR OVC007
     FM261800 32005KT P6SM OVC015
     FM262200 32005KT P6SM SCT015 BKN025=



000
FTUS42 KTAE 260200 AAD
TAFDHN
TAF AMD
KDHN 260249Z 2603/2624 06004KT P6SM -RA BKN006 OVC018
     FM260400 34006KT P6SM SCT006 OVC010
     FM261400 33007KT P6SM BKN010 OVC015
     FM262100 32008KT P6SM SCT015 BKN025=



000
FTUS42 KTAE 260200 AAD
TAFDHN
TAF AMD
KDHN 260249Z 2603/2624 06004KT P6SM -RA BKN006 OVC018
     FM260400 34006KT P6SM SCT006 OVC010
     FM261400 33007KT P6SM BKN010 OVC015
     FM262100 32008KT P6SM SCT015 BKN025=



000
FTUS42 KTAE 260200 AAC
TAFTLH
TAF AMD
KTLH 260248Z 2603/2624 00000KT 4SM RA BR BKN019 OVC027
     FM260400 24006KT 3SM RA BR BKN019
     FM260800 32007KT 6SM -RA BR OVC015
     FM261300 32005KT P6SM OVC010
     FM261800 31006KT P6SM BKN015
     FM262200 32007KT P6SM OVC025=



000
FTUS42 KTAE 260200 AAC
TAFTLH
TAF AMD
KTLH 260248Z 2603/2624 00000KT 4SM RA BR BKN019 OVC027
     FM260400 24006KT 3SM RA BR BKN019
     FM260800 32007KT 6SM -RA BR OVC015
     FM261300 32005KT P6SM OVC010
     FM261800 31006KT P6SM BKN015
     FM262200 32007KT P6SM OVC025=



000
FTUS42 KTAE 260100 AAB
TAFTLH
TAF AMD
KTLH 260126Z 2601/2624 16016G27KT 1 1/2SM TS BR OVC002CB
      TEMPO 2601/2603 29025G40KT 1/2SM +TSRA FG
     FM260400 24006KT 3SM RA BR OVC004
     FM260800 32007KT 5SM -RA BR OVC008
     FM261300 32005KT P6SM OVC010
     FM261800 31006KT P6SM BKN015
     FM262200 32007KT P6SM OVC025=



000
FTUS42 KTAE 260100 AAB
TAFVLD
TAF AMD
KVLD 260126Z 2601/2624 11007KT 4SM -RA BR OVC002
      TEMPO 2602/2606 VRB15G30KT 2SM +TSRA BKN007 OVC025CB
     FM261400 34005KT P6SM BKN010
     FM261900 35004KT P6SM OVC015
     FM262300 35003KT P6SM BKN015 OVC025=



000
FTUS42 KTAE 260100 AAB
TAFTLH
TAF AMD
KTLH 260126Z 2601/2624 16016G27KT 1 1/2SM TS BR OVC002CB
      TEMPO 2601/2603 29025G40KT 1/2SM +TSRA FG
     FM260400 24006KT 3SM RA BR OVC004
     FM260800 32007KT 5SM -RA BR OVC008
     FM261300 32005KT P6SM OVC010
     FM261800 31006KT P6SM BKN015
     FM262200 32007KT P6SM OVC025=



000
FTUS42 KTAE 260100 AAB
TAFVLD
TAF AMD
KVLD 260126Z 2601/2624 11007KT 4SM -RA BR OVC002
      TEMPO 2602/2606 VRB15G30KT 2SM +TSRA BKN007 OVC025CB
     FM261400 34005KT P6SM BKN010
     FM261900 35004KT P6SM OVC015
     FM262300 35003KT P6SM BKN015 OVC025=



000
FTUS42 KTAE 260100 AAC
TAFDHN
TAF AMD
KDHN 260104Z 2601/2624 08013G21KT P6SM -RA BKN006 OVC025
     FM260400 34006KT P6SM SCT006 OVC010
     FM261400 33007KT P6SM BKN010 OVC015
     FM262100 32008KT P6SM SCT015 BKN025=



000
FTUS42 KTAE 260100 AAB
TAFABY
TAF AMD
KABY 260102Z 2601/2624 06010KT 2SM RA BR VCTS SCT008 BKN012
      OVC035CB
     FM260400 36006KT 4SM -RA BR OVC010
     FM261000 34005KT 5SM BR OVC007
     FM261800 32005KT P6SM OVC015
     FM262200 32005KT P6SM SCT015 BKN025=



000
FTUS42 KTAE 260100 AAB
TAFABY
TAF AMD
KABY 260102Z 2601/2624 06010KT 2SM RA BR VCTS SCT008 BKN012
      OVC035CB
     FM260400 36006KT 4SM -RA BR OVC010
     FM261000 34005KT 5SM BR OVC007
     FM261800 32005KT P6SM OVC015
     FM262200 32005KT P6SM SCT015 BKN025=



000
FTUS42 KTAE 260000 AAB
TAFDHN
TAF AMD
KDHN 260034Z 2601/2624 06009KT 4SM RA BR BKN006 BKN010 OVC028
     FM260400 34006KT P6SM SCT006 OVC010
     FM261400 33007KT P6SM BKN010 OVC015
     FM262100 32008KT P6SM SCT015 BKN025=



000
FTUS42 KTAE 260000 AAA
TAFTLH
TAF AMD
KTLH 260033Z 2601/2624 16016G27KT 1 1/2SM TS BR OVC002CB
     FM260400 24006KT 3SM RA BR OVC004
     FM260800 32007KT 5SM -RA BR OVC008
     FM261300 32005KT P6SM OVC010
     FM261800 31006KT P6SM BKN015
     FM262200 32007KT P6SM OVC025=



000
FTUS42 KTAE 260000 AAA
TAFVLD
TAF AMD
KVLD 260003Z 2600/2624 12006KT 2SM RA BR OVC003
      TEMPO 2602/2606 VRB15G30KT 2SM +TSRA BKN007 OVC025CB
     FM261400 34005KT P6SM BKN010
     FM261900 35004KT P6SM OVC015
     FM262300 35003KT P6SM BKN015 OVC025=



000
FTUS42 KTAE 260000 AAA
TAFVLD
TAF AMD
KVLD 260003Z 2600/2624 12006KT 2SM RA BR OVC003
      TEMPO 2602/2606 VRB15G30KT 2SM +TSRA BKN007 OVC025CB
     FM261400 34005KT P6SM BKN010
     FM261900 35004KT P6SM OVC015
     FM262300 35003KT P6SM BKN015 OVC025=



000
FTUS42 KTAE 252300 AAA
TAFABY
TAF AMD
KABY 252357Z 2600/2624 06015KT 1 1/2SM +TSRA BKN008 OVC021CB
     FM260400 36006KT 4SM -RA BR OVC010
     FM261000 34005KT 5SM BR OVC007
     FM261800 32005KT P6SM OVC015
     FM262200 32005KT P6SM SCT015 BKN025=



000
FTUS42 KTAE 252300 AAA
TAFABY
TAF AMD
KABY 252357Z 2600/2624 06015KT 1 1/2SM +TSRA BKN008 OVC021CB
     FM260400 36006KT 4SM -RA BR OVC010
     FM261000 34005KT 5SM BR OVC007
     FM261800 32005KT P6SM OVC015
     FM262200 32005KT P6SM SCT015 BKN025=



000
FTUS42 KTAE 252300 AAA
TAFDHN
TAF AMD
KDHN 252349Z 2600/2624 04007KT 4SM -RA BR SCT006 BKN029 OVC035
     FM260400 34006KT P6SM SCT006 OVC010
     FM261400 33007KT P6SM BKN010 OVC015
     FM262100 32008KT P6SM SCT015 BKN025=



000
FTUS42 KTAE 252300 AAA
TAFDHN
TAF AMD
KDHN 252349Z 2600/2624 04007KT 4SM -RA BR SCT006 BKN029 OVC035
     FM260400 34006KT P6SM SCT006 OVC010
     FM261400 33007KT P6SM BKN010 OVC015
     FM262100 32008KT P6SM SCT015 BKN025=



000
FTUS42 KTAE 252300 RRA
TAFABY
TAF
KABY 252343Z 2600/2624 05009KT 3SM -RA BR BKN006 BKN024 OVC035
     FM260300 36006KT P6SM OVC010
     FM261500 34005KT P6SM BKN020=



000
FTUS42 KTAE 252300 RRA
TAFTLH
TAF
KTLH 252343Z 2600/2624 14006KT 1SM BR OVC003
      TEMPO 2601/2604 VRB20G30KT 2SM +TSRA BKN005 OVC015CB
     FM260400 24006KT 3SM RA BR OVC004
     FM260800 32007KT 5SM -RA BR OVC008
     FM261300 32005KT P6SM OVC010
     FM261800 31006KT P6SM BKN015
     FM262200 32007KT P6SM OVC025=



000
FTUS42 KTAE 252300 RRA
TAFVLD
TAF
KVLD 252343Z 2600/2624 13008KT 4SM BR OVC003
      TEMPO 2601/2604 VRB15G30KT 2SM +TSRA BKN007 OVC025CB
     FM260700 33006KT P6SM OVC005
     FM261400 34005KT P6SM BKN010=



000
FTUS42 KTAE 252300 RRA
TAFDHN
TAF
KDHN 252343Z 2600/2624 05010KT 3SM +RA BR BKN004 BKN029 OVC035
     FM260400 34006KT P6SM OVC010
     FM261400 34006KT P6SM BKN020=



000
FTUS42 KTAE 252300 RRA
TAFDHN
TAF
KDHN 252343Z 2600/2624 05010KT 3SM +RA BR BKN004 BKN029 OVC035
     FM260400 34006KT P6SM OVC010
     FM261400 34006KT P6SM BKN020=



000
FTUS42 KTAE 252300 RRA
TAFABY
TAF
KABY 252343Z 2600/2624 05009KT 3SM -RA BR BKN006 BKN024 OVC035
     FM260300 36006KT P6SM OVC010
     FM261500 34005KT P6SM BKN020=



000
FTUS42 KTAE 252300 RRA
TAFVLD
TAF
KVLD 252343Z 2600/2624 13008KT 4SM BR OVC003
      TEMPO 2601/2604 VRB15G30KT 2SM +TSRA BKN007 OVC025CB
     FM260700 33006KT P6SM OVC005
     FM261400 34005KT P6SM BKN010=



000
FTUS42 KTAE 252300 RRA
TAFTLH
TAF
KTLH 252343Z 2600/2624 14006KT 1SM BR OVC003
      TEMPO 2601/2604 VRB20G30KT 2SM +TSRA BKN005 OVC015CB
     FM260400 24006KT 3SM RA BR OVC004
     FM260800 32007KT 5SM -RA BR OVC008
     FM261300 32005KT P6SM OVC010
     FM261800 31006KT P6SM BKN015
     FM262200 32007KT P6SM OVC025=



000
FTUS42 KTAE 252100 AAC
TAFTLH
TAF AMD
KTLH 252127Z 2521/2618 14010KT P6SM OVC004
     FM252200 16009KT 5SM -RA BR OVC005
     FM260000 17012G18KT 3SM RA BR OVC005
      TEMPO 2600/2603 VRB20G30KT 2SM +TSRA OVC025CB
     FM260400 24006KT 4SM -RA BR OVC006
     FM260800 32005KT 5SM BR OVC010
     FM261300 33005KT P6SM OVC020
     FM261500 34005KT P6SM BKN030=



000
FTUS42 KTAE 252100 AAB
TAFABY
TAF AMD
KABY 252125Z 2521/2618 10009KT 1 1/2SM RA BR VCTS BKN005 BKN012
      OVC035CB
     FM260300 36006KT P6SM OVC010
     FM261500 34005KT P6SM BKN020=



000
FTUS42 KTAE 252100 AAB
TAFDHN
TAF AMD
KDHN 252123Z 2521/2618 02006KT 2SM -RA BR VCTS BKN004 OVC027CB
     FM260000 02012KT 3SM -RA BR OVC007
     FM260400 34006KT P6SM OVC010
     FM261400 34006KT P6SM BKN020=



000
FTUS42 KTAE 252100 AAB
TAFTLH
TAF AMD
KTLH 252104Z 2521/2618 15010G15KT 5SM -RA BR OVC005
     FM260000 17012G18KT 3SM RA BR OVC005
      TEMPO 2600/2603 VRB20G30KT 2SM +TSRA OVC025CB
     FM260400 24006KT 4SM -RA BR OVC006
     FM260800 32005KT 5SM BR OVC010
     FM261300 33005KT P6SM OVC020
     FM261500 34005KT P6SM BKN030=



    US Dept of Commerce
    National Oceanic and Atmospheric Administration
    National Weather Service
    1325 East West Highway
    Silver Spring, MD 20910
    Page Author: NWS Internet Services Team
Disclaimer
Information Quality
Credits
Glossary
Privacy Policy
Freedom of Information Act (FOIA)
About Us
Career Opportunities